createdAt,value
2018-05-21T00:00:16.599Z,56.74
2018-05-21T00:02:44.725Z,55.81
2018-05-21T00:05:12.846Z,56.87
2018-05-21T00:07:40.993Z,57.19
2018-05-21T00:10:09.107Z,56.80
2018-05-21T00:12:37.206Z,56.70
2018-05-21T00:15:05.369Z,56.95
2018-05-21T00:17:33.485Z,57.69
2018-05-21T00:20:01.598Z,58.51
2018-05-21T00:22:29.715Z,58.31
2018-05-21T00:24:57.857Z,58.58
2018-05-21T00:27:25.975Z,58.65
2018-05-21T00:29:54.101Z,58.65
2018-05-21T00:32:22.222Z,58.80
2018-05-21T00:34:50.333Z,58.47
2018-05-21T00:37:18.479Z,58.04
2018-05-21T00:39:46.660Z,57.64
2018-05-21T00:42:14.787Z,57.05
2018-05-21T00:44:42.940Z,57.01
2018-05-21T00:47:11.076Z,56.19
2018-05-21T00:49:39.193Z,55.12
2018-05-21T00:52:07.329Z,55.25
2018-05-21T00:54:35.441Z,55.01
2018-05-21T00:57:03.573Z,55.04
2018-05-21T00:59:31.687Z,55.09
2018-05-21T01:01:59.823Z,55.26
2018-05-21T01:04:27.948Z,54.63
2018-05-21T01:06:56.091Z,54.40
2018-05-21T01:09:24.188Z,55.20
2018-05-21T01:11:53.133Z,55.31
2018-05-21T01:14:21.274Z,55.00
2018-05-21T01:16:49.385Z,54.98
2018-05-21T01:19:17.501Z,55.48
2018-05-21T01:21:45.779Z,55.38
2018-05-21T01:24:13.883Z,55.26
2018-05-21T01:26:42.016Z,55.02
2018-05-21T01:29:10.293Z,55.41
2018-05-21T01:31:38.422Z,56.17
2018-05-21T01:34:06.544Z,55.52
2018-05-21T01:36:34.685Z,55.98
2018-05-21T01:39:02.802Z,55.55
2018-05-21T01:41:30.924Z,55.59
2018-05-21T01:43:59.076Z,55.47
2018-05-21T01:46:27.166Z,55.65
2018-05-21T01:48:55.270Z,55.59
2018-05-21T01:51:23.410Z,55.60
2018-05-21T01:53:51.527Z,55.72
2018-05-21T01:56:19.637Z,56.05
2018-05-21T01:58:47.971Z,55.87
2018-05-21T02:01:16.071Z,56.83
2018-05-21T02:03:44.170Z,56.24
2018-05-21T02:06:12.301Z,56.23
2018-05-21T02:08:40.523Z,56.25
2018-05-21T02:11:08.550Z,55.81
2018-05-21T02:13:36.681Z,56.22
2018-05-21T02:16:04.818Z,56.71
2018-05-21T02:18:32.960Z,56.14
2018-05-21T02:21:01.427Z,57.00
2018-05-21T02:23:29.514Z,56.46
2018-05-21T02:25:57.637Z,56.74
2018-05-21T02:28:25.765Z,56.92
2018-05-21T02:30:53.902Z,56.01
2018-05-21T02:33:22.028Z,56.75
2018-05-21T02:35:50.165Z,57.14
2018-05-21T02:38:18.260Z,56.92
2018-05-21T02:40:46.369Z,57.37
2018-05-21T02:43:14.491Z,56.71
2018-05-21T02:45:42.601Z,56.52
2018-05-21T02:48:10.716Z,57.04
2018-05-21T02:50:39.668Z,56.72
2018-05-21T02:53:07.805Z,56.58
2018-05-21T02:55:35.949Z,56.62
2018-05-21T02:58:04.063Z,56.58
2018-05-21T03:00:32.189Z,56.50
2018-05-21T03:03:00.303Z,57.01
2018-05-21T03:05:28.427Z,57.17
2018-05-21T03:07:56.531Z,57.06
2018-05-21T03:10:24.636Z,56.74
2018-05-21T03:12:52.787Z,56.54
2018-05-21T03:15:20.929Z,56.81
2018-05-21T03:17:49.060Z,56.19
2018-05-21T03:20:17.197Z,56.80
2018-05-21T03:22:45.310Z,56.78
2018-05-21T03:25:13.456Z,57.12
2018-05-21T03:27:41.576Z,57.04
2018-05-21T03:30:09.716Z,57.28
2018-05-21T03:32:37.825Z,57.40
2018-05-21T03:35:05.938Z,57.12
2018-05-21T03:37:34.056Z,57.05
2018-05-21T03:40:02.417Z,57.38
2018-05-21T03:42:30.534Z,56.96
2018-05-21T03:44:58.673Z,57.14
2018-05-21T03:47:26.775Z,57.52
2018-05-21T03:49:54.899Z,57.97
2018-05-21T03:52:23.017Z,57.32
2018-05-21T03:54:51.130Z,56.98
2018-05-21T03:57:19.494Z,56.79
2018-05-21T03:59:59.595Z,57.37
2018-05-21T04:02:39.688Z,57.14
2018-05-21T04:05:07.801Z,57.65
2018-05-21T04:07:35.932Z,57.79
2018-05-21T04:10:04.977Z,58.09
2018-05-21T04:12:33.150Z,57.45
2018-05-21T04:15:01.288Z,57.47
2018-05-21T04:17:29.480Z,57.97
2018-05-21T04:19:57.583Z,57.83
2018-05-21T04:22:25.705Z,57.18
2018-05-21T04:24:53.851Z,57.23
2018-05-21T04:27:21.952Z,57.55
2018-05-21T04:29:50.091Z,57.60
2018-05-21T04:32:18.239Z,57.44
2018-05-21T04:34:46.349Z,56.87
2018-05-21T04:37:14.464Z,57.52
2018-05-21T04:39:42.717Z,57.24
2018-05-21T04:42:10.836Z,57.69
2018-05-21T04:44:38.962Z,58.15
2018-05-21T04:47:07.102Z,57.33
2018-05-21T04:49:35.208Z,58.42
2018-05-21T04:52:03.328Z,57.23
2018-05-21T04:54:31.461Z,56.99
2018-05-21T04:56:59.592Z,56.63
2018-05-21T04:59:27.691Z,56.54
2018-05-21T05:01:55.817Z,56.21
2018-05-21T05:04:23.938Z,56.60
2018-05-21T05:06:52.053Z,57.73
2018-05-21T05:09:20.202Z,57.14
2018-05-21T05:11:48.332Z,57.58
2018-05-21T05:14:16.452Z,57.19
2018-05-21T05:16:44.582Z,56.63
2018-05-21T05:19:12.696Z,57.01
2018-05-21T05:21:40.806Z,56.85
2018-05-21T05:24:08.934Z,56.99
2018-05-21T05:26:37.092Z,57.05
2018-05-21T05:29:05.201Z,56.69
2018-05-21T05:31:33.339Z,56.27
2018-05-21T05:34:01.461Z,56.67
2018-05-21T05:36:29.568Z,56.06
2018-05-21T05:38:57.681Z,55.83
2018-05-21T05:41:25.805Z,55.86
2018-05-21T05:43:53.915Z,55.42
2018-05-21T05:46:22.047Z,55.50
2018-05-21T05:48:50.206Z,55.23
2018-05-21T05:51:18.286Z,54.89
2018-05-21T05:53:47.007Z,55.24
2018-05-21T05:56:15.133Z,54.78
2018-05-21T05:58:43.307Z,55.40
2018-05-21T06:01:11.389Z,55.48
2018-05-21T06:03:39.646Z,55.02
2018-05-21T06:06:07.643Z,55.27
2018-05-21T06:08:35.772Z,54.89
2018-05-21T06:11:03.913Z,55.20
2018-05-21T06:13:32.035Z,54.75
2018-05-21T06:16:00.165Z,54.97
2018-05-21T06:18:28.284Z,54.64
2018-05-21T06:20:56.405Z,54.59
2018-05-21T06:23:24.541Z,54.58
2018-05-21T06:25:52.720Z,54.25
2018-05-21T06:28:20.774Z,54.52
2018-05-21T06:30:48.892Z,54.66
2018-05-21T06:33:16.994Z,54.39
2018-05-21T06:35:45.113Z,53.94
2018-05-21T06:38:13.425Z,54.25
2018-05-21T06:40:41.566Z,54.42
2018-05-21T06:43:09.696Z,54.47
2018-05-21T06:45:37.840Z,53.73
2018-05-21T06:48:05.938Z,53.74
2018-05-21T06:50:34.056Z,53.15
2018-05-21T06:53:02.167Z,53.29
2018-05-21T06:55:30.285Z,53.20
2018-05-21T06:57:58.387Z,52.71
2018-05-21T07:00:26.535Z,52.21
2018-05-21T07:02:54.653Z,52.67
2018-05-21T07:05:22.750Z,51.28
2018-05-21T07:07:50.918Z,51.29
2018-05-21T07:10:19.002Z,51.49
2018-05-21T07:12:47.125Z,51.13
2018-05-21T07:15:15.256Z,51.52
2018-05-21T07:17:43.366Z,52.72
2018-05-21T07:20:11.478Z,51.04
2018-05-21T07:22:39.609Z,50.48
2018-05-21T07:25:07.734Z,51.06
2018-05-21T07:27:35.873Z,50.21
2018-05-21T07:30:04.041Z,50.10
2018-05-21T07:32:32.187Z,50.04
2018-05-21T07:35:00.306Z,49.78
2018-05-21T07:37:28.400Z,49.63
2018-05-21T07:39:56.518Z,49.43
2018-05-21T07:42:24.641Z,50.51
2018-05-21T07:44:52.818Z,49.42
2018-05-21T07:47:20.883Z,49.22
2018-05-21T07:49:49.009Z,47.91
2018-05-21T07:52:17.141Z,48.41
2018-05-21T07:54:45.265Z,48.70
2018-05-21T07:57:13.385Z,49.06
2018-05-21T07:59:41.538Z,48.73
2018-05-21T08:02:09.648Z,48.97
2018-05-21T08:04:37.768Z,49.31
2018-05-21T08:07:05.927Z,48.68
2018-05-21T08:09:34.040Z,48.58
2018-05-21T08:12:02.459Z,49.04
2018-05-21T08:14:30.680Z,50.05
2018-05-21T08:16:58.742Z,49.86
2018-05-21T08:19:26.853Z,49.15
2018-05-21T08:21:54.993Z,49.40
2018-05-21T08:24:23.379Z,49.88
2018-05-21T08:26:51.241Z,49.96
2018-05-21T08:29:19.537Z,48.68
2018-05-21T08:31:47.652Z,48.80
2018-05-21T08:34:15.807Z,48.44
2018-05-21T08:36:43.923Z,49.08
2018-05-21T08:39:12.049Z,48.72
2018-05-21T08:41:40.183Z,47.61
2018-05-21T08:44:08.313Z,46.68
2018-05-21T08:46:36.430Z,48.24
2018-05-21T08:49:04.559Z,49.06
2018-05-21T08:51:32.670Z,47.94
2018-05-21T08:54:00.816Z,47.33
2018-05-21T08:56:29.008Z,48.07
2018-05-21T08:58:57.286Z,47.79
2018-05-21T09:01:25.404Z,48.87
2018-05-21T09:03:53.529Z,48.11
2018-05-21T09:06:21.681Z,48.45
2018-05-21T09:08:49.779Z,48.69
2018-05-21T09:11:17.901Z,48.85
2018-05-21T09:13:46.036Z,49.18
2018-05-21T09:16:14.236Z,46.84
2018-05-21T09:18:42.291Z,46.99
2018-05-21T09:21:10.426Z,48.23
2018-05-21T09:23:38.559Z,47.95
2018-05-21T09:26:06.737Z,46.60
2018-05-21T09:28:34.869Z,46.63
2018-05-21T09:31:02.967Z,47.46
2018-05-21T09:33:31.084Z,47.23
2018-05-21T09:35:59.214Z,46.14
2018-05-21T09:38:27.332Z,46.34
2018-05-21T09:40:55.456Z,46.06
2018-05-21T09:43:23.935Z,45.39
2018-05-21T09:45:52.052Z,45.98
2018-05-21T09:48:20.180Z,46.81
2018-05-21T09:50:48.305Z,45.63
2018-05-21T09:53:16.410Z,44.92
2018-05-21T09:55:44.547Z,45.55
2018-05-21T09:58:12.669Z,44.76
2018-05-21T10:00:40.789Z,44.71
2018-05-21T10:03:08.916Z,45.81
2018-05-21T10:05:37.062Z,44.66
2018-05-21T10:08:05.195Z,44.86
2018-05-21T10:10:33.282Z,44.58
2018-05-21T10:13:01.433Z,44.38
2018-05-21T10:15:30.002Z,45.81
2018-05-21T10:17:58.136Z,44.95
2018-05-21T10:20:26.273Z,45.51
2018-05-21T10:22:54.366Z,45.49
2018-05-21T10:25:22.638Z,44.95
2018-05-21T10:27:50.805Z,43.45
2018-05-21T10:30:18.933Z,43.19
2018-05-21T10:32:47.040Z,44.46
2018-05-21T10:35:15.178Z,45.74
2018-05-21T10:37:43.306Z,45.72
2018-05-21T10:40:11.483Z,44.89
2018-05-21T10:42:39.612Z,44.72
2018-05-21T10:45:07.725Z,45.39
2018-05-21T10:47:35.840Z,45.67
2018-05-21T10:50:03.982Z,44.64
2018-05-21T10:52:32.094Z,43.37
2018-05-21T10:55:00.236Z,43.24
2018-05-21T10:57:28.381Z,43.81
2018-05-21T10:59:56.471Z,44.08
2018-05-21T11:02:24.633Z,43.36
2018-05-21T11:04:52.953Z,42.71
2018-05-21T11:07:21.081Z,44.20
2018-05-21T11:09:49.184Z,43.17
2018-05-21T11:12:17.418Z,43.18
2018-05-21T11:14:45.438Z,42.53
2018-05-21T11:17:13.554Z,43.03
2018-05-21T11:19:41.703Z,44.21
2018-05-21T11:22:09.814Z,42.11
2018-05-21T11:24:37.966Z,42.36
2018-05-21T11:27:06.076Z,42.42
2018-05-21T11:29:34.216Z,42.87
2018-05-21T11:32:02.488Z,41.07
2018-05-21T11:34:30.525Z,41.73
2018-05-21T11:36:58.640Z,41.99
2018-05-21T11:39:26.762Z,41.62
2018-05-21T11:41:55.090Z,42.08
2018-05-21T11:44:23.220Z,41.11
2018-05-21T11:46:51.329Z,41.57
2018-05-21T11:49:19.471Z,40.94
2018-05-21T11:51:47.593Z,40.43
2018-05-21T11:54:15.733Z,40.51
2018-05-21T11:56:43.871Z,40.12
2018-05-21T11:59:11.967Z,39.33
2018-05-21T12:01:40.092Z,38.64
2018-05-21T12:04:08.221Z,39.51
2018-05-21T12:06:36.342Z,37.40
2018-05-21T12:09:04.455Z,37.05
2018-05-21T12:11:32.567Z,38.19
2018-05-21T12:14:00.712Z,36.64
2018-05-21T12:16:28.826Z,37.02
2018-05-21T12:18:56.953Z,36.58
2018-05-21T12:21:25.091Z,33.57
2018-05-21T12:23:53.224Z,32.63
2018-05-21T12:26:21.557Z,32.50
2018-05-21T12:28:49.685Z,31.60
2018-05-21T12:31:17.779Z,31.75
2018-05-21T12:33:45.902Z,30.55
2018-05-21T12:36:14.025Z,32.28
2018-05-21T12:38:42.139Z,32.91
2018-05-21T12:41:10.259Z,32.36
2018-05-21T12:43:38.451Z,32.93
2018-05-21T12:46:06.529Z,33.79
2018-05-21T12:48:34.657Z,33.47
2018-05-21T12:51:02.773Z,34.16
2018-05-21T12:53:30.878Z,34.16
2018-05-21T12:55:59.012Z,32.64
2018-05-21T12:58:27.161Z,33.51
2018-05-21T13:00:56.105Z,33.86
2018-05-21T13:03:24.241Z,33.19
2018-05-21T13:05:52.348Z,32.22
2018-05-21T13:08:20.473Z,33.39
2018-05-21T13:10:48.583Z,32.79
2018-05-21T13:13:16.709Z,31.65
2018-05-21T13:15:44.839Z,31.62
2018-05-21T13:18:12.974Z,31.42
2018-05-21T13:20:41.071Z,31.62
2018-05-21T13:23:09.197Z,31.27
2018-05-21T13:25:37.317Z,30.09
2018-05-21T13:28:05.455Z,30.76
2018-05-21T13:30:33.587Z,32.39
2018-05-21T13:33:05.155Z,31.52
2018-05-21T13:35:33.277Z,30.64
2018-05-21T13:38:01.382Z,31.05
2018-05-21T13:40:29.552Z,32.16
2018-05-21T13:42:57.751Z,32.67
2018-05-21T13:45:25.854Z,32.24
2018-05-21T13:47:53.966Z,32.08
2018-05-21T13:50:22.093Z,31.18
2018-05-21T13:52:50.235Z,32.15
2018-05-21T13:55:18.376Z,29.20
2018-05-21T13:57:46.489Z,29.02
2018-05-21T14:00:14.612Z,29.20
2018-05-21T14:02:42.754Z,29.30
2018-05-21T14:05:10.882Z,30.53
2018-05-21T14:07:38.966Z,31.31
2018-05-21T14:10:10.585Z,30.37
2018-05-21T14:12:38.736Z,29.47
2018-05-21T14:15:06.790Z,30.75
2018-05-21T14:17:34.919Z,31.20
2018-05-21T14:20:03.102Z,31.52
2018-05-21T14:22:31.204Z,31.58
2018-05-21T14:24:59.341Z,31.52
2018-05-21T14:27:31.646Z,32.31
2018-05-21T14:29:59.795Z,32.04
2018-05-21T14:32:27.931Z,31.53
2018-05-21T14:34:56.054Z,31.36
2018-05-21T14:37:24.184Z,30.96
2018-05-21T14:39:52.302Z,32.13
2018-05-21T14:42:20.414Z,32.01
2018-05-21T14:44:48.546Z,30.90
2018-05-21T14:47:16.736Z,31.12
2018-05-21T14:49:45.327Z,30.33
2018-05-21T14:52:13.463Z,30.01
2018-05-21T14:54:41.741Z,30.54
2018-05-21T14:57:09.889Z,31.37
2018-05-21T14:59:38.947Z,32.12
2018-05-21T15:02:07.111Z,32.25
2018-05-21T15:04:35.824Z,32.86
2018-05-21T15:07:03.931Z,31.55
2018-05-21T15:09:32.121Z,30.29
2018-05-21T15:12:00.221Z,30.64
2018-05-21T15:14:28.411Z,32.48
2018-05-21T15:16:56.549Z,31.33
2018-05-21T15:19:24.732Z,32.65
2018-05-21T15:21:52.845Z,33.62
2018-05-21T15:24:21.000Z,33.65
2018-05-21T15:26:49.117Z,33.63
2018-05-21T15:29:17.320Z,33.03
2018-05-21T15:31:45.589Z,33.35
2018-05-21T15:34:17.165Z,34.31
2018-05-21T15:36:45.285Z,31.84
2018-05-21T15:39:13.399Z,32.73
2018-05-21T15:41:41.522Z,32.33
2018-05-21T15:44:09.655Z,30.28
2018-05-21T15:46:37.811Z,32.42
2018-05-21T15:49:05.930Z,32.05
2018-05-21T15:51:34.078Z,31.41
2018-05-21T15:54:02.182Z,32.39
2018-05-21T15:56:30.305Z,32.72
2018-05-21T15:58:58.452Z,32.52
2018-05-21T16:01:26.600Z,32.85
2018-05-21T16:03:54.711Z,32.49
2018-05-21T16:06:22.852Z,32.98
2018-05-21T16:08:50.981Z,34.55
2018-05-21T16:11:19.099Z,34.77
2018-05-21T16:13:47.320Z,34.75
2018-05-21T16:16:15.452Z,35.04
2018-05-21T16:18:43.583Z,35.12
2018-05-21T16:21:11.793Z,35.87
2018-05-21T16:23:39.911Z,35.62
2018-05-21T16:26:08.012Z,35.78
2018-05-21T16:28:37.019Z,36.45
2018-05-21T16:31:05.175Z,37.57
2018-05-21T16:33:33.439Z,36.84
2018-05-21T16:36:01.584Z,36.59
2018-05-21T16:38:29.709Z,36.15
2018-05-21T16:40:57.825Z,35.96
2018-05-21T16:43:29.799Z,36.58
2018-05-21T16:45:57.932Z,36.20
2018-05-21T16:48:26.038Z,37.21
2018-05-21T16:50:54.138Z,36.90
2018-05-21T16:53:22.297Z,37.19
2018-05-21T16:55:50.416Z,37.21
2018-05-21T16:58:18.515Z,37.36
2018-05-21T17:00:46.669Z,36.71
2018-05-21T17:03:14.778Z,37.06
2018-05-21T17:05:42.886Z,36.74
2018-05-21T17:08:11.022Z,36.36
2018-05-21T17:10:39.115Z,36.48
2018-05-21T17:13:07.245Z,36.51
2018-05-21T17:15:35.350Z,36.60
2018-05-21T17:18:03.455Z,36.29
2018-05-21T17:20:31.590Z,36.23
2018-05-21T17:22:59.738Z,37.03
2018-05-21T17:25:27.866Z,36.83
2018-05-21T17:27:55.985Z,36.80
2018-05-21T17:30:24.116Z,37.03
2018-05-21T17:32:52.286Z,37.20
2018-05-21T17:35:20.445Z,37.98
2018-05-21T17:37:48.576Z,38.27
2018-05-21T17:40:16.696Z,37.94
2018-05-21T17:42:44.832Z,37.36
2018-05-21T17:45:12.973Z,37.87
2018-05-21T17:47:41.093Z,38.58
2018-05-21T17:50:09.210Z,37.49
2018-05-21T17:52:37.355Z,37.60
2018-05-21T17:55:05.506Z,38.01
2018-05-21T17:57:33.618Z,38.14
2018-05-21T18:00:01.815Z,38.42
2018-05-21T18:02:29.915Z,38.67
2018-05-21T18:04:58.137Z,38.22
2018-05-21T18:07:26.285Z,38.64
2018-05-21T18:09:54.427Z,38.10
2018-05-21T18:12:22.608Z,38.32
2018-05-21T18:14:50.728Z,39.03
2018-05-21T18:17:18.846Z,38.61
2018-05-21T18:19:46.962Z,38.87
2018-05-21T18:22:18.125Z,38.68
2018-05-21T18:24:46.237Z,39.05
2018-05-21T18:27:14.361Z,38.71
2018-05-21T18:29:42.498Z,38.53
2018-05-21T18:32:10.668Z,39.30
2018-05-21T18:34:38.755Z,40.08
2018-05-21T18:37:06.912Z,39.81
2018-05-21T18:39:35.022Z,39.49
2018-05-21T18:42:03.207Z,39.61
2018-05-21T18:44:31.269Z,39.35
2018-05-21T18:46:59.404Z,39.54
2018-05-21T18:49:27.514Z,40.12
2018-05-21T18:51:55.877Z,40.35
2018-05-21T18:54:23.974Z,41.03
2018-05-21T18:56:52.095Z,41.27
2018-05-21T18:59:20.357Z,40.66
2018-05-21T19:01:48.525Z,41.21
2018-05-21T19:04:16.712Z,41.28
2018-05-21T19:06:45.013Z,40.65
2018-05-21T19:09:13.159Z,40.63
2018-05-21T19:11:41.287Z,39.62
2018-05-21T19:14:09.423Z,39.84
2018-05-21T19:16:37.542Z,40.43
2018-05-21T19:19:05.664Z,40.01
2018-05-21T19:21:33.827Z,40.37
2018-05-21T19:24:01.983Z,41.07
2018-05-21T19:26:30.094Z,40.86
2018-05-21T19:28:58.225Z,40.61
2018-05-21T19:31:26.331Z,40.93
2018-05-21T19:33:55.364Z,40.69
2018-05-21T19:36:24.369Z,40.77
2018-05-21T19:38:52.486Z,40.96
2018-05-21T19:41:20.608Z,41.04
2018-05-21T19:43:48.754Z,41.64
2018-05-21T19:46:16.858Z,41.32
2018-05-21T19:48:44.998Z,41.93
2018-05-21T19:51:13.141Z,41.73
2018-05-21T19:53:41.307Z,42.00
2018-05-21T19:56:09.402Z,41.40
2018-05-21T19:58:37.552Z,41.51
2018-05-21T20:01:05.688Z,41.97
2018-05-21T20:03:33.810Z,42.07
2018-05-21T20:06:02.040Z,42.99
2018-05-21T20:08:30.160Z,42.27
2018-05-21T20:10:58.325Z,42.12
2018-05-21T20:13:26.593Z,42.93
2018-05-21T20:15:54.690Z,42.43
2018-05-21T20:18:33.889Z,43.64
2018-05-21T20:21:02.026Z,42.95
2018-05-21T20:23:30.194Z,43.35
2018-05-21T20:25:58.451Z,43.77
2018-05-21T20:28:29.965Z,44.21
2018-05-21T20:30:58.124Z,45.33
2018-05-21T20:33:26.641Z,44.71
2018-05-21T20:35:54.779Z,43.90
2018-05-21T20:38:22.892Z,43.63
2018-05-21T20:40:51.117Z,43.48
2018-05-21T20:43:19.253Z,44.98
2018-05-21T20:45:47.491Z,44.33
2018-05-21T20:48:15.667Z,44.69
2018-05-21T20:50:43.774Z,43.64
2018-05-21T20:53:11.875Z,43.49
2018-05-21T20:55:40.024Z,43.73
2018-05-21T20:58:08.141Z,44.82
2018-05-21T21:00:36.316Z,44.32
2018-05-21T21:03:04.703Z,44.31
2018-05-21T21:05:32.831Z,44.32
2018-05-21T21:08:00.957Z,45.06
2018-05-21T21:10:29.323Z,45.01
2018-05-21T21:12:57.429Z,44.71
2018-05-21T21:15:25.530Z,45.31
2018-05-21T21:17:53.648Z,45.87
2018-05-21T21:20:21.766Z,46.38
2018-05-21T21:22:50.022Z,46.92
2018-05-21T21:25:18.141Z,46.87
2018-05-21T21:27:49.404Z,47.20
2018-05-21T21:30:17.520Z,47.60
2018-05-21T21:32:45.652Z,48.03
2018-05-21T21:35:13.776Z,49.07
2018-05-21T21:37:41.891Z,51.36
2018-05-21T21:40:10.037Z,51.54
2018-05-21T21:42:38.141Z,52.46
2018-05-21T21:45:06.273Z,53.93
2018-05-21T21:47:34.410Z,54.62
2018-05-21T21:50:02.539Z,56.08
2018-05-21T21:52:30.658Z,57.56
2018-05-21T21:54:58.780Z,58.86
2018-05-21T21:57:26.916Z,58.99
2018-05-21T21:59:55.047Z,59.82
2018-05-21T22:02:23.172Z,61.44
2018-05-21T22:04:51.288Z,62.83
2018-05-21T22:07:19.390Z,63.79
2018-05-21T22:09:47.617Z,65.26
2018-05-21T22:12:15.727Z,66.94
2018-05-21T22:14:43.846Z,69.91
2018-05-21T22:17:11.952Z,69.49
2018-05-21T22:19:40.092Z,69.64
2018-05-21T22:22:08.213Z,67.55
2018-05-21T22:24:36.356Z,68.93
2018-05-21T22:27:04.479Z,66.97
2018-05-21T22:29:32.612Z,67.21
2018-05-21T22:32:01.003Z,68.23
2018-05-21T22:34:29.128Z,69.21
2018-05-21T22:36:57.219Z,69.44
2018-05-21T22:39:25.373Z,70.50
2018-05-21T22:41:53.463Z,70.44
2018-05-21T22:44:21.577Z,70.45
2018-05-21T22:46:49.700Z,70.70
2018-05-21T22:49:17.813Z,70.76
2018-05-21T22:51:46.021Z,70.91
2018-05-21T22:54:19.946Z,71.51
2018-05-21T22:56:48.053Z,71.32
2018-05-21T22:59:16.199Z,70.96
2018-05-21T23:01:44.399Z,71.17
2018-05-21T23:04:12.532Z,71.86
2018-05-21T23:06:40.700Z,72.10
2018-05-21T23:09:08.847Z,71.85
2018-05-21T23:11:36.993Z,70.64
2018-05-21T23:14:05.114Z,69.96
2018-05-21T23:16:33.413Z,71.07
2018-05-21T23:19:01.536Z,70.14
2018-05-21T23:21:29.653Z,70.14
2018-05-21T23:23:57.971Z,69.44
2018-05-21T23:26:26.107Z,69.27
2018-05-21T23:28:54.227Z,69.21
2018-05-21T23:31:22.368Z,69.47
2018-05-21T23:33:50.467Z,69.54
2018-05-21T23:36:18.578Z,69.87
2018-05-21T23:38:46.707Z,70.64
2018-05-21T23:41:14.830Z,70.77
2018-05-21T23:43:42.947Z,71.02
2018-05-21T23:46:11.100Z,70.88
2018-05-21T23:48:39.202Z,71.30
2018-05-21T23:51:07.402Z,70.73
2018-05-21T23:53:35.468Z,71.08
2018-05-21T23:56:03.608Z,71.72
2018-05-21T23:58:31.736Z,71.98
